118  
SXUS55 KMSO 242343  
OSOMSO  
MONTANA AWOS SUMMARY  
NATIONAL WEATHER SERVICE MISSOULA MT  
442 PM MST FRI MAR 24 2017  
 
MONTANA AWOS REPORTS  
 
LAUREL |K6S8 242335Z AUTO 15012G25KT 25SM 18/M02 A2984 RMK AO1 T01781021  
 
CLICK HERE TO GO TO PREVIOUS BULLETINS.

The Nexlab MT Page
The Nexlab ID Page Main Text Page